Terminal Aerodrome Forecast
Issued by NWS

Home | Current Version | Previous Version | Text Only | Print | Product List | Glossary On
Versions: 1 2 3 4 5 6 7 8 9 10 11 12 13 14 15 16 17 18 19
000
FTUS43 KGLD 260535
TAFMCK
TAF
KMCK 260535Z 2606/2706 36010KT P6SM SCT030 BKN200
     FM261000 04006KT 6SM BR SCT005 BKN015
     FM261200 06007KT 3SM BR BKN007
     FM261500 07011KT P6SM SCT015 BKN035
     FM262000 03014KT P6SM VCTS SCT080CB BKN150
     FM270200 34013KT P6SM -TSRA BKN050CB=

USA.gov is the U.S. government's official web portal to all federal, state and local government web resources and services.